Weather observations for the past three days for
Rota Island, N. Mariana Is, Rota International Airport
Metric (Imperial)
Date Time (chst) Wind (kph) Vis. (km) Weather Sky Cond. Temperature (ºC) Relative Humidity Wind Chill (°C) Heat Index (°C) Pressure Precipitation (cm)
Air Dwpt 6 hour altimeter (cm) sea level (mb) 1 hr 3 hr 6 hr
Max. Min.
06 15:50 E 44 G 57 11.27 Mostly Cloudy and Windy BKN012 BKN120 30 25 75% 36 75.79 0.0
06 14:50 E 41 G 54 11.27 Mostly Cloudy and Breezy BKN012 BKN120 28 25 84% 33 75.82 0.0
06 13:50 E 37 G 52 11.27 Mostly Cloudy and Breezy SCT012 BKN120 27 24 84% 30 75.82 0.0
06 12:50 E 33 G 46 11.27 Mostly Cloudy and Breezy BKN011 BKN090 27 25 89% 31 75.84 0.0
06 11:50 E 30 G 41 11.27 Light Rain BKN010 OVC100 27 25 89% 31 75.92 0.0
06 10:50 E 26 G 37 11.27 Mostly Cloudy BKN012 BKN100 28 25 84% 33 75.97 0.0
06 09:50 E 26 G 35 11.27 Mostly Cloudy BKN012 27 25 89% 31 75.97 0.0
06 08:50 E 22 G 37 11.27 Mostly Cloudy BKN012 BKN120 27 25 89% 31 75.97 0.0
06 07:50 E 19 G 33 11.27 Mostly Cloudy BKN012 BKN120 26 25 94% 28 75.95 0.0
06 06:55 E 28 G 44 11.27 Showers in Vicinity BKN013 BKN120 25 24 94% 26 75.9 0.0
05 17:50 E 24 G 41 11.27 Light Rain Fog/Mist BKN010 OVC100 26 24 89% 28 75.82 0.0
05 16:50 E 22 G 41 11.27 Light Rain Fog/Mist BKN013 OVC100 26 25 94% 28 75.82 0.0
05 15:50 E 26 G 44 11.27 Light Rain Fog/Mist BKN013 OVC100 27 25 89% 31 75.82 0.0
05 14:50 E 30 G 41 11.27 Mostly Cloudy BKN013 28 24 79% 32 75.79 0.0
05 13:50 NE 30 G 41 11.27 Mostly Cloudy BKN013 28 24 79% 32 75.82 0.0
05 12:50 E 20 G 31 11.27 Mostly Cloudy BKN012 28 24 79% 32 75.87 0.0
05 11:50 E 26 G 37 11.27 Mostly Cloudy BKN014 28 25 84% 33 75.9 0.0
05 10:50 E 24 G 31 11.27 Mostly Cloudy BKN013 28 25 84% 33 75.95 0.0
05 09:50 E 22 G 30 11.27 Mostly Cloudy BKN013 28 24 79% 32 75.97 0.0
05 08:50 E 19 G 26 11.27 Mostly Cloudy BKN013 27 24 84% 30 75.97 0.0
05 07:50 E 15 G 22 11.27 Mostly Cloudy BKN012 BKN140 26 24 89% 28 75.95 0.0
05 06:50 E 20 11.27 Mostly Cloudy BKN012 BKN140 26 24 89% 28 75.92 0.0
04 17:50 E 26 G 35 11.27 Overcast BKN012 OVC120 27 24 84% 30 75.84 0.0
04 16:50 E 24 G 30 11.27 Overcast SCT012 OVC120 28 25 84% 33 75.82 0.0
04 15:50 E 26 G 33 11.27 Overcast BKN012 OVC120 28 26 89% 34 75.82 0.0
04 14:50 E 28 G 39 11.27 Light Rain Fog/Mist BKN010 OVC100 28 26 89% 34 75.82 0.0
04 13:50 E 22 G 33 11.27 Mostly Cloudy SCT013 BKN120 28 25 84% 33 75.87 0.0
04 12:50 E 24 G 35 11.27 Overcast BKN011 OVC120 28 25 84% 33 75.9 0.0
04 11:50 E 22 G 31 11.27 Overcast BKN011 OVC120 28 25 84% 33 75.95 0.0
04 10:50 E 22 G 35 11.27 Overcast BKN011 OVC120 28 25 84% 33 75.97 0.0
04 09:50 E 24 G 33 11.27 Overcast BKN012 OVC120 27 26 94% 31 76.02 0.0
04 08:50 E 15 9.66 Light Rain Fog/Mist BKN010 OVC120 27 25 89% 31 75.97 0.0
04 07:50 E 20 G 31 11.27 Overcast BKN012 OVC120 27 25 89% 31 75.95 0.0
04 06:50 E 20 G 28 11.27 Light Rain BKN011 BKN120 26 25 94% 28 75.9 0.0
03 17:50 E 19 11.27 Mostly Cloudy BKN014 BKN100 28 24 79% 32 75.79 0.0
03 16:50 E 22 G 33 11.27 Mostly Cloudy BKN014 BKN100 29 25 79% 35 75.74 0.0
Date Time (chst) Wind (kph) Vis. (km) Weather Sky Cond. Air Dwpt Max. Min. Relative Humidity Wind Chill (°C) Heat Index (°C) altimeter (cm) sea level (mb) 1 hr 3 hr 6 hr
6 hour
Temperature (ºC) Pressure Precipitation (cm)